Time;durP1;ratioP1;P1;durP2;ratioP2;P2;SDS_P1;SDS_P2;PMS_P1;PMS_P2;Temp;Humidity;BMP_temperature;BMP_pressure;BME280_temperature;BME280_humidity;BME280_pressure;Samples;Min_cycle;Max_cycle;Signal;HPM_P1;HPM_P2
2024/04/08 00:00:29;;;;;;;13.87;5.03;;;15.20;99.90;;;;;;791849;181;26481;-79
2024/04/08 00:02:56;;;;;;;12.20;4.20;;;15.00;99.90;;;;;;803282;178;26426;-80
2024/04/08 00:05:22;;;;;;;15.80;4.70;;;14.90;99.90;;;;;;800096;179;26601;-79
2024/04/08 00:07:49;;;;;;;11.00;5.20;;;14.80;99.90;;;;;;798010;179;26436;-81
2024/04/08 00:10:15;;;;;;;12.93;5.27;;;14.70;99.90;;;;;;790078;181;26491;-81
2024/04/08 00:12:42;;;;;;;10.17;4.60;;;14.60;99.90;;;;;;802108;179;26415;-80
2024/04/08 00:15:08;;;;;;;11.87;4.50;;;14.60;99.90;;;;;;801368;177;26479;-80
2024/04/08 00:17:35;;;;;;;11.80;4.47;;;14.50;99.90;;;;;;802180;178;26446;-81
2024/04/08 00:20:02;;;;;;;14.33;5.30;;;14.50;99.90;;;;;;800197;178;26438;-81
2024/04/08 00:22:28;;;;;;;16.47;5.27;;;14.50;99.90;;;;;;811432;177;26431;-78
2024/04/08 00:24:55;;;;;;;12.90;4.93;;;14.50;99.90;;;;;;803771;178;26437;-81
2024/04/08 00:27:21;;;;;;;11.00;5.47;;;14.40;99.90;;;;;;797518;178;26440;-80
2024/04/08 00:29:48;;;;;;;12.77;5.73;;;14.30;99.90;;;;;;800566;179;26467;-78
2024/04/08 00:32:15;;;;;;;13.83;5.90;;;14.30;99.90;;;;;;798027;179;26590;-79
2024/04/08 00:34:41;;;;;;;17.50;7.97;;;14.20;99.90;;;;;;810338;176;26435;-80
2024/04/08 00:37:08;;;;;;;13.50;8.17;;;14.30;99.90;;;;;;798590;179;26449;-79
2024/04/08 00:39:34;;;;;;;12.80;7.73;;;14.30;99.90;;;;;;794853;179;26484;-80
2024/04/08 00:42:01;;;;;;;18.93;6.63;;;14.20;99.90;;;;;;815217;175;26413;-80
2024/04/08 00:44:28;;;;;;;15.87;6.10;;;14.20;99.90;;;;;;806470;177;26450;-80
2024/04/08 00:46:54;;;;;;;14.67;5.67;;;14.30;99.90;;;;;;798646;179;27020;-80
2024/04/08 00:49:21;;;;;;;8.77;5.70;;;14.20;99.90;;;;;;808943;174;27613;-79
2024/04/08 00:51:47;;;;;;;15.77;5.27;;;14.20;99.90;;;;;;807400;177;27013;-80
2024/04/08 00:54:14;;;;;;;17.47;5.87;;;14.20;99.90;;;;;;808256;176;26460;-80
2024/04/08 00:56:40;;;;;;;15.43;6.20;;;14.10;99.90;;;;;;803989;178;26470;-80
2024/04/08 00:59:08;;;;;;;14.50;6.10;;;14.20;99.90;;;;;;805583;178;26431;-80
2024/04/08 01:01:34;;;;;;;16.03;7.03;;;14.10;99.90;;;;;;800428;179;26970;-79
2024/04/08 01:04:00;;;;;;;13.80;5.87;;;14.10;99.90;;;;;;794307;179;27844;-77
2024/04/08 01:06:27;;;;;;;13.50;6.40;;;14.00;99.90;;;;;;798389;179;27006;-79
2024/04/08 01:08:53;;;;;;;15.97;7.83;;;14.00;99.90;;;;;;806015;178;26415;-79
2024/04/08 01:11:20;;;;;;;14.33;7.57;;;14.00;99.90;;;;;;812539;175;26410;-81
2024/04/08 01:13:47;;;;;;;17.20;8.30;;;13.90;99.90;;;;;;813897;175;26442;-78
2024/04/08 01:16:13;;;;;;;18.17;9.53;;;13.90;99.90;;;;;;809363;177;26585;-80
2024/04/08 01:18:40;;;;;;;18.37;8.90;;;13.90;99.90;;;;;;802243;179;26447;-80
2024/04/08 01:21:06;;;;;;;15.87;8.63;;;13.90;99.90;;;;;;800051;179;26400;-81
2024/04/08 01:23:36;;;;;;;16.47;7.93;;;13.90;99.90;;;;;;811360;176;26390;-80
2024/04/08 01:26:03;;;;;;;15.57;8.73;;;13.90;99.90;;;;;;800369;178;26857;-79
2024/04/08 01:28:30;;;;;;;16.13;8.63;;;13.90;99.90;;;;;;802225;178;26447;-81
2024/04/08 01:31:00;;;;;;;15.60;8.53;;;13.80;99.90;;;;;;805365;177;26455;-80
2024/04/08 01:33:23;;;;;;;18.87;8.73;;;13.70;99.90;;;;;;801346;178;26491;-80
2024/04/08 01:35:49;;;;;;;15.93;9.23;;;13.70;99.90;;;;;;805570;178;26436;-80
2024/04/08 01:38:17;;;;;;;14.63;8.33;;;13.80;99.90;;;;;;795113;178;26461;-80
2024/04/08 01:40:43;;;;;;;16.47;8.90;;;13.70;99.90;;;;;;811391;177;26409;-78
2024/04/08 01:43:10;;;;;;;14.80;7.73;;;13.70;99.90;;;;;;798020;177;26428;-79
2024/04/08 01:45:37;;;;;;;14.77;7.93;;;13.70;99.90;;;;;;801495;178;26433;-79
2024/04/08 01:48:03;;;;;;;12.97;7.90;;;13.60;99.90;;;;;;799589;178;26442;-79
2024/04/08 01:50:30;;;;;;;16.10;8.17;;;13.40;99.90;;;;;;811051;177;26446;-79
2024/04/08 01:52:57;;;;;;;15.27;8.17;;;13.50;99.90;;;;;;795014;178;26513;-79
2024/04/08 01:55:23;;;;;;;24.17;9.63;;;13.50;99.90;;;;;;800914;178;26447;-79
2024/04/08 01:57:51;;;;;;;19.47;9.80;;;13.30;99.90;;;;;;799114;178;26447;-79
2024/04/08 02:00:16;;;;;;;18.13;8.40;;;13.50;99.90;;;;;;793888;178;26431;-79
2024/04/08 02:02:43;;;;;;;17.20;8.90;;;13.40;99.90;;;;;;793764;178;26428;-79
2024/04/08 02:05:10;;;;;;;21.80;10.10;;;13.30;99.90;;;;;;799734;178;26439;-79
2024/04/08 02:07:36;;;;;;;19.93;9.30;;;13.40;99.90;;;;;;804199;177;26462;-79
2024/04/08 02:10:03;;;;;;;19.50;9.93;;;13.40;99.90;;;;;;809945;177;26412;-79
2024/04/08 02:12:29;;;;;;;18.97;10.53;;;13.30;99.90;;;;;;814086;175;26439;-79
2024/04/08 02:14:56;;;;;;;15.83;9.67;;;13.20;99.90;;;;;;808259;175;27051;-79
2024/04/08 02:17:23;;;;;;;25.77;10.20;;;13.20;99.90;;;;;;810933;176;26579;-78
2024/04/08 02:19:49;;;;;;;19.97;10.00;;;13.10;99.90;;;;;;814571;175;26414;-79
2024/04/08 02:22:16;;;;;;;20.40;9.93;;;13.10;99.90;;;;;;792304;181;26445;-79
2024/04/08 02:24:43;;;;;;;25.63;10.77;;;13.00;99.90;;;;;;798089;178;26431;-79
2024/04/08 02:27:09;;;;;;;23.87;11.97;;;13.00;99.90;;;;;;801085;178;26455;-79
2024/04/08 02:29:36;;;;;;;22.13;11.43;;;13.10;99.90;;;;;;807442;178;26427;-79
2024/04/08 02:32:02;;;;;;;25.07;13.07;;;13.10;99.90;;;;;;806222;178;26426;-79
2024/04/08 02:34:29;;;;;;;30.50;12.40;;;13.10;99.90;;;;;;804082;177;26434;-80
2024/04/08 02:36:55;;;;;;;24.93;13.40;;;13.10;99.90;;;;;;804343;177;26471;-80
2024/04/08 02:39:22;;;;;;;25.40;14.17;;;13.00;99.90;;;;;;807443;176;26403;-79
2024/04/08 02:41:49;;;;;;;30.43;14.20;;;13.00;99.90;;;;;;803841;178;26435;-79
2024/04/08 02:44:15;;;;;;;26.40;14.90;;;13.00;99.90;;;;;;807935;177;26497;-78
2024/04/08 02:46:42;;;;;;;27.73;14.37;;;13.00;99.90;;;;;;804437;177;26410;-79
2024/04/08 02:49:08;;;;;;;27.70;15.57;;;12.90;99.90;;;;;;798535;177;26452;-80
2024/04/08 02:51:35;;;;;;;31.00;14.77;;;12.80;99.90;;;;;;806811;177;26399;-79
2024/04/08 02:54:02;;;;;;;31.13;15.03;;;12.80;99.90;;;;;;807300;177;26926;-79
2024/04/08 02:56:28;;;;;;;29.73;15.17;;;12.70;99.90;;;;;;807680;177;26466;-79
2024/04/08 02:58:55;;;;;;;30.53;15.27;;;12.60;99.90;;;;;;803332;178;26395;-79
2024/04/08 03:01:21;;;;;;;29.77;15.63;;;12.60;99.90;;;;;;801250;178;26450;-78
2024/04/08 03:03:48;;;;;;;28.13;14.17;;;12.70;99.90;;;;;;807026;178;26463;-77
2024/04/08 03:06:15;;;;;;;29.67;14.97;;;12.80;99.90;;;;;;803118;178;26431;-79
2024/04/08 03:08:41;;;;;;;25.93;14.53;;;12.90;99.90;;;;;;810183;177;26422;-79
2024/04/08 03:11:08;;;;;;;32.07;14.87;;;12.90;99.90;;;;;;804377;178;26396;-78
2024/04/08 03:13:35;;;;;;;24.30;13.63;;;12.90;99.90;;;;;;798796;178;26522;-78
2024/04/08 03:16:02;;;;;;;28.57;13.73;;;12.90;99.90;;;;;;798310;178;26463;-78
2024/04/08 03:18:28;;;;;;;26.17;14.70;;;12.80;99.90;;;;;;803321;178;26448;-78
2024/04/08 03:20:56;;;;;;;31.47;14.50;;;12.70;99.90;;;;;;806549;177;26430;-77
2024/04/08 03:23:23;;;;;;;32.43;14.97;;;12.70;99.90;;;;;;804736;178;26454;-78
2024/04/08 03:25:56;;;;;;;33.23;15.27;;;12.70;99.90;;;;;;801541;178;26542;-78
2024/04/08 03:28:22;;;;;;;32.43;16.63;;;12.70;99.90;;;;;;799886;178;26475;-79
2024/04/08 03:30:49;;;;;;;28.83;15.53;;;12.80;99.90;;;;;;806115;178;26400;-79
2024/04/08 03:33:16;;;;;;;32.77;16.30;;;12.70;99.90;;;;;;805721;178;26428;-78
2024/04/08 03:35:43;;;;;;;30.03;16.80;;;12.80;99.90;;;;;;804148;178;26419;-80
2024/04/08 03:38:09;;;;;;;35.27;16.40;;;12.80;99.90;;;;;;800278;173;26496;-82
2024/04/08 03:40:35;;;;;;;34.37;16.90;;;12.70;99.90;;;;;;802365;178;26612;-83
2024/04/08 03:43:02;;;;;;;33.07;16.23;;;12.70;99.90;;;;;;794150;179;26457;-81
2024/04/08 03:45:28;;;;;;;31.40;18.00;;;12.80;99.90;;;;;;810566;176;26450;-81
2024/04/08 03:47:55;;;;;;;31.73;17.33;;;12.70;99.90;;;;;;812305;177;26443;-81
2024/04/08 03:50:22;;;;;;;32.90;16.57;;;12.70;99.90;;;;;;811506;176;26485;-80
2024/04/08 03:52:48;;;;;;;36.50;18.87;;;12.80;99.90;;;;;;812551;176;26434;-80
2024/04/08 03:55:15;;;;;;;33.77;17.07;;;12.70;99.90;;;;;;798720;178;26439;-80
2024/04/08 03:57:42;;;;;;;37.80;18.53;;;12.70;99.90;;;;;;803130;177;28037;-80
2024/04/08 04:00:09;;;;;;;38.43;18.03;;;12.70;99.90;;;;;;804935;178;26459;-81
2024/04/08 04:02:37;;;;;;;32.27;19.10;;;12.60;99.90;;;;;;807454;178;26988;-81
2024/04/08 04:05:02;;;;;;;43.40;19.57;;;12.50;99.90;;;;;;804994;177;26438;-80
2024/04/08 04:07:29;;;;;;;35.33;18.47;;;12.60;99.90;;;;;;800572;178;26460;-81
2024/04/08 04:09:56;;;;;;;38.77;19.97;;;12.60;99.90;;;;;;800505;179;26463;-82
2024/04/08 04:12:22;;;;;;;41.17;20.10;;;12.50;99.90;;;;;;807589;177;26432;-80
2024/04/08 04:14:49;;;;;;;40.67;19.37;;;12.50;99.90;;;;;;805527;175;26459;-80
2024/04/08 04:17:15;;;;;;;37.33;20.57;;;12.40;99.90;;;;;;799352;177;26456;-79
2024/04/08 04:19:42;;;;;;;42.13;21.50;;;12.40;99.90;;;;;;799101;177;28078;-81
2024/04/08 04:22:08;;;;;;;45.80;21.40;;;12.50;99.90;;;;;;803717;178;26462;-80
2024/04/08 04:24:35;;;;;;;41.63;21.67;;;12.50;99.90;;;;;;806923;177;26965;-80
2024/04/08 04:27:02;;;;;;;37.77;21.23;;;12.60;99.90;;;;;;805125;177;26438;-81
2024/04/08 04:29:28;;;;;;;38.53;19.53;;;12.60;99.90;;;;;;808992;173;28017;-81
2024/04/08 04:31:55;;;;;;;37.07;20.07;;;12.70;99.90;;;;;;810292;177;26459;-81
2024/04/08 04:34:21;;;;;;;38.43;20.80;;;12.80;99.90;;;;;;811200;174;26913;-81
2024/04/08 04:36:48;;;;;;;39.90;21.27;;;12.80;99.90;;;;;;810473;176;26486;-82
2024/04/08 04:39:15;;;;;;;37.50;18.90;;;12.80;99.90;;;;;;810453;176;26439;-82
2024/04/08 04:41:41;;;;;;;36.10;19.03;;;12.90;99.90;;;;;;810420;176;26429;-82
2024/04/08 04:44:08;;;;;;;35.63;18.93;;;12.90;99.90;;;;;;810323;176;26445;-80
2024/04/08 04:46:34;;;;;;;35.60;19.27;;;12.80;99.90;;;;;;809584;176;26597;-81
2024/04/08 04:49:01;;;;;;;40.80;19.50;;;12.90;99.90;;;;;;809443;176;26442;-82
2024/04/08 04:51:28;;;;;;;35.80;18.30;;;12.80;99.90;;;;;;809663;176;26439;-82
2024/04/08 04:53:54;;;;;;;34.07;19.27;;;12.80;99.90;;;;;;809183;177;26443;-81
2024/04/08 04:56:21;;;;;;;35.40;18.07;;;12.80;99.90;;;;;;809041;176;26450;-81
2024/04/08 04:58:47;;;;;;;27.10;17.57;;;12.80;99.90;;;;;;809365;177;26466;-82
2024/04/08 05:01:14;;;;;;;38.60;20.70;;;12.70;99.90;;;;;;810791;175;26469;-82
2024/04/08 05:03:41;;;;;;;34.90;19.57;;;12.70;99.90;;;;;;812281;175;26980;-82
2024/04/08 05:06:08;;;;;;;40.23;20.60;;;12.70;99.90;;;;;;812111;176;26485;-82
2024/04/08 05:08:34;;;;;;;43.07;20.97;;;12.60;99.90;;;;;;810692;177;26445;-81
2024/04/08 05:11:01;;;;;;;37.83;21.80;;;12.50;99.90;;;;;;813794;176;26449;-80
2024/04/08 05:13:28;;;;;;;45.17;21.00;;;12.50;99.90;;;;;;811827;176;26448;-81
2024/04/08 05:16:01;;;;;;;46.47;21.90;;;12.40;99.90;;;;;;811248;176;26444;-81
2024/04/08 05:18:28;;;;;;;41.40;22.43;;;12.50;99.90;;;;;;811259;176;26425;-82
2024/04/08 05:20:54;;;;;;;40.90;20.27;;;12.50;99.90;;;;;;810390;176;26466;-79
2024/04/08 05:23:22;;;;;;;42.53;22.20;;;12.40;99.90;;;;;;798915;178;26584;-80
2024/04/08 05:25:48;;;;;;;37.43;20.97;;;12.50;99.90;;;;;;811019;177;26420;-81
2024/04/08 05:28:14;;;;;;;38.33;21.83;;;12.60;99.90;;;;;;811858;175;26459;-79
2024/04/08 05:30:42;;;;;;;39.27;21.90;;;12.60;99.90;;;;;;813704;176;26611;-80
2024/04/08 05:33:08;;;;;;;39.10;21.17;;;12.60;99.90;;;;;;810681;177;26426;-81
2024/04/08 05:35:35;;;;;;;46.83;21.53;;;12.60;99.90;;;;;;811047;177;27670;-80
2024/04/08 05:38:02;;;;;;;40.27;21.33;;;12.60;99.90;;;;;;811007;176;27623;-81
2024/04/08 05:40:28;;;;;;;38.90;21.53;;;12.60;99.90;;;;;;810499;176;26453;-81
2024/04/08 05:42:55;;;;;;;43.13;22.07;;;12.70;99.90;;;;;;811901;176;26583;-81
2024/04/08 05:45:21;;;;;;;41.17;22.17;;;12.70;99.90;;;;;;811712;176;26434;-80
2024/04/08 05:47:54;;;;;;;37.23;20.27;;;12.70;99.90;;;;;;810064;177;26556;-80
2024/04/08 05:50:15;;;;;;;38.07;20.50;;;12.80;99.90;;;;;;811227;176;26478;-81
2024/04/08 05:52:41;;;;;;;45.20;21.63;;;12.90;99.90;;;;;;809303;177;26572;-80
2024/04/08 05:55:09;;;;;;;38.97;20.67;;;12.90;99.90;;;;;;810502;177;26441;-80
2024/04/08 05:57:35;;;;;;;38.40;19.97;;;12.90;99.90;;;;;;810980;176;26430;-81
2024/04/08 06:00:01;;;;;;;37.20;22.07;;;13.00;99.90;;;;;;809380;176;26471;-81
2024/04/08 06:02:28;;;;;;;42.27;20.50;;;13.00;99.90;;;;;;809195;177;26971;-81
2024/04/08 06:04:54;;;;;;;40.57;19.87;;;13.10;99.90;;;;;;809348;178;26426;-81
2024/04/08 06:07:21;;;;;;;34.33;18.77;;;13.10;99.90;;;;;;811687;176;26455;-81
2024/04/08 06:09:48;;;;;;;27.67;16.80;;;13.10;99.90;;;;;;809551;176;26458;-80
2024/04/08 06:12:14;;;;;;;38.60;18.70;;;13.20;99.90;;;;;;810550;175;27670;-81
2024/04/08 06:14:41;;;;;;;34.73;18.30;;;13.20;99.90;;;;;;812655;176;26451;-81
2024/04/08 06:17:08;;;;;;;37.50;18.47;;;13.30;99.90;;;;;;811828;175;26437;-81
2024/04/08 06:19:34;;;;;;;29.87;16.33;;;13.40;99.90;;;;;;810899;177;26470;-80
2024/04/08 06:22:01;;;;;;;31.53;16.40;;;13.40;99.90;;;;;;813433;176;26430;-81
2024/04/08 06:24:27;;;;;;;31.13;15.17;;;13.50;99.90;;;;;;809840;176;26564;-81
2024/04/08 06:26:54;;;;;;;28.83;15.07;;;13.60;99.90;;;;;;810280;177;26425;-81
2024/04/08 06:29:20;;;;;;;25.10;13.90;;;13.80;99.90;;;;;;811639;176;26982;-81
2024/04/08 06:31:48;;;;;;;25.10;14.47;;;13.90;99.90;;;;;;809798;176;26457;-81
2024/04/08 06:34:14;;;;;;;24.47;13.50;;;14.00;99.90;;;;;;809917;176;26437;-81
2024/04/08 06:36:40;;;;;;;26.67;15.23;;;14.00;99.90;;;;;;811048;176;26432;-81
2024/04/08 06:39:07;;;;;;;23.90;12.33;;;14.20;99.90;;;;;;810973;176;26469;-79
2024/04/08 06:41:36;;;;;;;30.43;14.43;;;14.30;99.90;;;;;;809678;177;26454;-80
2024/04/08 06:44:01;;;;;;;28.50;15.37;;;14.40;99.90;;;;;;810377;176;26567;-80
2024/04/08 06:46:27;;;;;;;22.60;12.03;;;14.50;99.90;;;;;;810976;177;26989;-79
2024/04/08 06:48:54;;;;;;;23.07;12.63;;;14.60;99.90;;;;;;809823;177;26417;-80
2024/04/08 06:51:21;;;;;;;22.83;11.70;;;14.60;99.90;;;;;;810274;177;26471;-80
2024/04/08 06:53:47;;;;;;;24.23;12.40;;;14.70;99.90;;;;;;808916;178;27076;-80
2024/04/08 06:56:14;;;;;;;17.20;11.60;;;14.80;99.90;;;;;;808925;177;26434;-79
2024/04/08 06:58:41;;;;;;;21.40;12.37;;;14.90;99.90;;;;;;810805;177;26445;-81
2024/04/08 07:01:07;;;;;;;19.87;11.77;;;15.00;99.90;;;;;;812031;176;26993;-81
2024/04/08 07:03:33;;;;;;;24.37;13.20;;;15.00;99.90;;;;;;809784;176;26433;-80
2024/04/08 07:06:00;;;;;;;26.77;12.83;;;15.00;99.90;;;;;;810603;176;26458;-81
2024/04/08 07:08:27;;;;;;;21.53;12.93;;;15.00;99.90;;;;;;809162;177;26430;-81
2024/04/08 07:10:53;;;;;;;23.63;13.13;;;15.10;99.90;;;;;;809200;178;26607;-81
2024/04/08 07:13:20;;;;;;;26.10;13.90;;;15.10;99.90;;;;;;808976;177;26451;-80
2024/04/08 07:15:55;;;;;;;24.87;14.20;;;15.10;99.90;;;;;;811455;177;26466;-80
2024/04/08 07:18:25;;;;;;;26.37;12.87;;;15.20;99.90;;;;;;811441;176;27694;-81
2024/04/08 07:20:51;;;;;;;23.73;12.53;;;15.30;99.90;;;;;;811063;177;26442;-80
2024/04/08 07:23:18;;;;;;;23.00;12.60;;;15.20;99.90;;;;;;810570;177;26469;-81
2024/04/08 07:25:44;;;;;;;18.30;11.57;;;15.10;99.90;;;;;;813086;175;26550;-80
2024/04/08 07:28:11;;;;;;;24.23;11.73;;;15.20;99.90;;;;;;812951;175;26453;-80
2024/04/08 07:30:38;;;;;;;23.87;13.00;;;15.30;99.90;;;;;;813271;176;26514;-80
2024/04/08 07:33:05;;;;;;;24.63;13.23;;;15.30;99.90;;;;;;811428;176;26410;-80
2024/04/08 07:35:32;;;;;;;26.87;13.53;;;15.30;99.90;;;;;;810936;177;26577;-81
2024/04/08 07:37:58;;;;;;;23.87;12.57;;;15.40;99.90;;;;;;809674;177;26612;-81
2024/04/08 07:40:24;;;;;;;24.67;13.07;;;15.50;99.90;;;;;;811377;177;26473;-80
2024/04/08 07:42:51;;;;;;;26.20;14.47;;;15.30;99.90;;;;;;811529;176;26420;-81
2024/04/08 07:45:18;;;;;;;23.80;13.60;;;15.30;99.90;;;;;;811054;174;26434;-81
2024/04/08 07:47:45;;;;;;;22.83;12.40;;;15.40;99.90;;;;;;813178;176;26425;-82
2024/04/08 07:50:11;;;;;;;21.47;13.00;;;15.70;99.90;;;;;;810199;176;26445;-81
2024/04/08 07:52:39;;;;;;;25.63;14.60;;;15.70;99.90;;;;;;810461;177;26442;-82
2024/04/08 07:55:04;;;;;;;25.17;13.40;;;15.70;99.90;;;;;;810345;177;26587;-81
2024/04/08 07:57:31;;;;;;;17.67;13.07;;;16.00;99.90;;;;;;810267;177;26590;-81
2024/04/08 07:59:58;;;;;;;25.40;14.83;;;16.00;99.90;;;;;;809423;177;26663;-81
2024/04/08 08:02:24;;;;;;;24.93;13.93;;;15.90;99.90;;;;;;809853;176;26584;-81
2024/04/08 08:04:51;;;;;;;25.87;13.90;;;15.80;99.90;;;;;;811244;177;26438;-82
2024/04/08 08:07:17;;;;;;;24.83;13.40;;;16.00;99.90;;;;;;810508;173;26443;-81
2024/04/08 08:09:44;;;;;;;21.17;13.50;;;16.10;99.90;;;;;;811410;177;26485;-83
2024/04/08 08:12:11;;;;;;;25.20;14.80;;;16.20;99.90;;;;;;809514;177;26444;-83
2024/04/08 08:14:37;;;;;;;29.23;17.90;;;16.20;99.90;;;;;;810218;177;26468;-83
2024/04/08 08:17:04;;;;;;;29.03;16.57;;;16.20;99.90;;;;;;808903;177;26439;-83
2024/04/08 08:19:31;;;;;;;28.20;17.50;;;16.20;99.90;;;;;;809994;176;26493;-82
2024/04/08 08:21:58;;;;;;;26.33;17.33;;;16.40;99.90;;;;;;810204;176;26451;-79
2024/04/08 08:24:24;;;;;;;28.13;18.47;;;16.20;99.90;;;;;;809254;174;26438;-80
2024/04/08 08:26:50;;;;;;;29.13;17.67;;;16.00;99.90;;;;;;809347;178;26481;-81
2024/04/08 08:29:17;;;;;;;26.43;17.33;;;16.00;99.90;;;;;;809793;176;26450;-81
2024/04/08 08:31:44;;;;;;;31.20;18.63;;;16.20;99.90;;;;;;810667;177;26434;-81
2024/04/08 08:34:10;;;;;;;28.87;18.53;;;16.40;99.90;;;;;;808969;178;27641;-81
2024/04/08 08:36:37;;;;;;;28.67;18.37;;;16.60;99.90;;;;;;811574;175;26972;-81
2024/04/08 08:39:04;;;;;;;25.07;16.97;;;16.80;99.90;;;;;;811383;176;26497;-82
2024/04/08 08:41:31;;;;;;;30.37;17.87;;;17.00;99.90;;;;;;810820;176;26519;-81
2024/04/08 08:44:01;;;;;;;31.47;18.47;;;17.20;99.90;;;;;;811778;177;26435;-81
2024/04/08 08:46:26;;;;;;;31.37;18.23;;;17.30;99.90;;;;;;809520;177;26434;-82
2024/04/08 08:48:52;;;;;;;32.33;19.33;;;17.50;99.90;;;;;;813092;176;26434;-80
2024/04/08 08:51:19;;;;;;;29.70;19.23;;;17.50;99.90;;;;;;810379;177;26478;-80
2024/04/08 08:53:46;;;;;;;36.80;21.43;;;17.30;99.90;;;;;;813197;176;26477;-81
2024/04/08 08:56:12;;;;;;;31.73;20.33;;;17.10;99.90;;;;;;809890;177;26483;-80
2024/04/08 08:58:39;;;;;;;35.33;20.17;;;17.10;99.90;;;;;;809592;177;26430;-81
2024/04/08 09:01:05;;;;;;;30.97;20.10;;;17.10;99.90;;;;;;810030;177;26439;-81
2024/04/08 09:03:33;;;;;;;32.30;21.00;;;17.50;99.90;;;;;;810515;176;26456;-81
2024/04/08 09:05:59;;;;;;;30.37;19.23;;;17.50;99.90;;;;;;810191;176;26430;-82
2024/04/08 09:08:25;;;;;;;33.87;20.10;;;17.50;99.90;;;;;;812316;176;26463;-82
2024/04/08 09:10:52;;;;;;;32.70;19.43;;;17.60;99.90;;;;;;811183;177;26432;-82
2024/04/08 09:13:21;;;;;;;31.20;19.60;;;17.90;99.90;;;;;;809766;176;26472;-82
2024/04/08 09:15:48;;;;;;;27.60;17.90;;;18.00;99.90;;;;;;811705;176;26452;-81
2024/04/08 09:18:16;;;;;;;30.30;19.13;;;18.00;99.90;;;;;;810920;176;26446;-82
2024/04/08 09:20:42;;;;;;;30.93;18.43;;;17.50;99.90;;;;;;809255;178;27012;-80
2024/04/08 09:23:09;;;;;;;30.60;18.70;;;17.30;99.90;;;;;;809630;177;26434;-80
2024/04/08 09:25:36;;;;;;;25.57;17.40;;;17.50;99.90;;;;;;810136;176;26455;-81
2024/04/08 09:28:11;;;;;;;31.30;18.87;;;17.60;99.90;;;;;;810599;178;26443;-81
2024/04/08 09:30:41;;;;;;;30.47;18.87;;;17.50;99.90;;;;;;810517;178;26444;-81
2024/04/08 09:33:11;;;;;;;31.63;20.53;;;17.50;99.90;;;;;;810246;178;26449;-80
2024/04/08 09:35:40;;;;;;;33.43;19.40;;;17.80;99.90;;;;;;810257;178;26452;-80
2024/04/08 09:38:09;;;;;;;28.73;18.87;;;17.90;99.90;;;;;;810183;178;26438;-80
2024/04/08 09:40:38;;;;;;;27.57;17.90;;;18.10;99.90;;;;;;822269;169;26552;-77
2024/04/08 09:43:04;;;;;;;28.70;18.33;;;18.60;99.90;;;;;;835289;170;26385;-77
2024/04/08 09:45:31;;;;;;;27.70;17.87;;;18.50;99.90;;;;;;839219;171;26397;-77
2024/04/08 09:47:57;;;;;;;30.70;18.47;;;18.30;99.90;;;;;;826215;171;26969;-77
2024/04/08 09:50:24;;;;;;;26.70;18.00;;;18.70;99.90;;;;;;823204;174;26416;-76
2024/04/08 09:52:50;;;;;;;30.77;17.50;;;18.90;99.90;;;;;;802357;177;26772;-77
2024/04/08 09:55:17;;;;;;;28.07;17.37;;;18.90;99.90;;;;;;802771;177;26494;-77
2024/04/08 09:57:44;;;;;;;26.53;17.57;;;19.30;99.90;;;;;;802003;177;26445;-77
2024/04/08 10:00:15;;;;;;;29.37;18.27;;;19.60;99.90;;;;;;806087;177;26627;-77
2024/04/08 10:02:43;;;;;;;35.83;21.03;;;19.50;99.90;;;;;;811886;177;26419;-77
2024/04/08 10:05:09;;;;;;;30.00;17.23;;;19.50;99.90;;;;;;825976;174;26396;-80
2024/04/08 10:07:36;;;;;;;26.80;17.00;;;19.40;99.90;;;;;;808124;177;26435;-81
2024/04/08 10:10:04;;;;;;;23.63;15.90;;;19.10;99.90;;;;;;802828;174;26422;-81
2024/04/08 10:12:31;;;;;;;26.47;16.50;;;19.00;99.90;;;;;;800768;177;26434;-81
2024/04/08 10:15:12;;;;;;;26.13;16.87;;;19.70;99.90;;;;;;802011;177;26459;-81
2024/04/08 10:17:41;;;;;;;23.43;16.13;;;19.60;99.90;;;;;;804499;177;26426;-81
2024/04/08 10:20:08;;;;;;;24.50;15.33;;;19.80;99.90;;;;;;805600;177;26440;-82
2024/04/08 10:22:35;;;;;;;22.77;14.03;;;20.00;99.90;;;;;;810462;177;26415;-80
2024/04/08 10:25:02;;;;;;;23.97;15.07;;;20.10;99.90;;;;;;815519;174;26390;-81
2024/04/08 10:27:30;;;;;;;24.40;13.63;;;19.70;99.90;;;;;;816907;172;26441;-81
2024/04/08 10:29:56;;;;;;;22.80;13.20;;;20.20;99.90;;;;;;813223;175;26405;-82
2024/04/08 10:32:23;;;;;;;20.47;12.47;;;20.50;99.90;;;;;;810224;175;26410;-80
2024/04/08 10:34:50;;;;;;;18.87;11.67;;;20.70;99.90;;;;;;826742;172;26398;-80
2024/04/08 10:37:17;;;;;;;18.97;11.90;;;21.20;99.90;;;;;;809816;176;26466;-81
2024/04/08 10:39:45;;;;;;;20.90;12.80;;;21.70;99.90;;;;;;801071;179;26944;-77
2024/04/08 10:42:11;;;;;;;21.07;12.47;;;21.80;99.90;;;;;;806319;177;26453;-79
2024/04/08 10:44:38;;;;;;;20.17;11.53;;;22.40;99.90;;;;;;805801;177;26432;-80
2024/04/08 10:47:06;;;;;;;19.97;10.47;;;23.00;99.90;;;;;;802952;177;26580;-81
2024/04/08 10:49:32;;;;;;;19.00;11.03;;;22.90;99.00;;;;;;804770;174;26474;-80
2024/04/08 10:51:59;;;;;;;18.63;9.63;;;22.70;99.90;;;;;;815718;174;26415;-82
2024/04/08 10:54:27;;;;;;;19.60;10.73;;;22.50;98.80;;;;;;821943;172;26416;-80
2024/04/08 10:56:53;;;;;;;23.73;11.87;;;21.90;99.90;;;;;;823676;174;26412;-81
2024/04/08 10:59:20;;;;;;;15.73;11.00;;;21.50;99.90;;;;;;821654;173;27022;-79
2024/04/08 11:01:47;;;;;;;20.40;12.30;;;21.10;99.90;;;;;;828001;173;26447;-79
2024/04/08 11:04:14;;;;;;;21.77;12.67;;;21.50;99.90;;;;;;827459;174;26534;-81
2024/04/08 11:06:40;;;;;;;16.40;10.60;;;21.70;99.90;;;;;;820861;173;26425;-81
2024/04/08 11:09:07;;;;;;;19.23;10.67;;;21.80;99.90;;;;;;820340;174;26426;-80
2024/04/08 11:11:33;;;;;;;18.70;10.80;;;21.80;99.90;;;;;;824922;174;26411;-80
2024/04/08 11:14:00;;;;;;;17.57;10.77;;;21.80;99.90;;;;;;828791;172;26609;-80
2024/04/08 11:16:27;;;;;;;18.17;10.57;;;21.60;99.90;;;;;;826776;174;26412;-80
2024/04/08 11:18:54;;;;;;;23.13;11.53;;;21.20;99.90;;;;;;815462;174;26498;-81
2024/04/08 11:21:20;;;;;;;29.80;12.30;;;20.80;99.90;;;;;;820817;174;26461;-82
2024/04/08 11:23:47;;;;;;;15.60;10.43;;;20.90;99.90;;;;;;820455;174;26408;-82
2024/04/08 11:26:16;;;;;;;23.03;11.33;;;21.10;99.90;;;;;;820372;174;26438;-81
2024/04/08 11:28:40;;;;;;;17.77;10.20;;;21.50;99.90;;;;;;815997;174;26462;-82
2024/04/08 11:31:07;;;;;;;19.73;10.57;;;21.80;99.90;;;;;;821037;174;26494;-82
2024/04/08 11:33:33;;;;;;;16.67;10.57;;;22.40;99.90;;;;;;822301;173;26432;-82
2024/04/08 11:36:00;;;;;;;14.87;9.83;;;23.20;98.70;;;;;;816524;174;26992;-80
2024/04/08 11:38:27;;;;;;;17.87;9.07;;;23.50;97.40;;;;;;824687;174;26393;-80
2024/04/08 11:40:54;;;;;;;18.70;8.93;;;23.80;95.60;;;;;;825875;173;26428;-82
2024/04/08 11:43:20;;;;;;;16.33;9.03;;;23.60;97.60;;;;;;826910;174;26419;-81
2024/04/08 11:45:46;;;;;;;16.70;10.23;;;23.80;96.70;;;;;;821156;173;26416;-80
2024/04/08 11:48:13;;;;;;;13.30;8.27;;;24.00;95.80;;;;;;822767;174;26392;-82
2024/04/08 11:50:41;;;;;;;13.40;7.73;;;24.80;97.30;;;;;;821267;174;26436;-81
2024/04/08 11:53:07;;;;;;;17.40;8.03;;;25.10;91.70;;;;;;815690;173;26454;-81
2024/04/08 11:55:34;;;;;;;13.50;8.03;;;25.50;91.40;;;;;;820663;174;26437;-81
2024/04/08 11:58:00;;;;;;;12.80;7.93;;;26.00;89.80;;;;;;820165;174;26430;-81
2024/04/08 12:00:27;;;;;;;18.07;7.87;;;25.10;91.40;;;;;;815715;173;26449;-81
2024/04/08 12:02:54;;;;;;;15.73;7.33;;;25.30;90.40;;;;;;820108;174;26436;-81
2024/04/08 12:05:20;;;;;;;17.10;9.00;;;25.70;85.80;;;;;;818105;174;26981;-82
2024/04/08 12:07:47;;;;;;;15.37;7.90;;;26.20;87.20;;;;;;816393;174;26389;-81
2024/04/08 12:10:13;;;;;;;14.87;8.17;;;25.50;84.70;;;;;;818140;174;27085;-80
2024/04/08 12:12:40;;;;;;;13.60;7.63;;;25.30;90.80;;;;;;821402;173;26494;-80
2024/04/08 12:15:07;;;;;;;15.87;7.77;;;26.20;84.20;;;;;;822270;174;26392;-79
2024/04/08 12:17:34;;;;;;;16.50;8.13;;;26.90;73.00;;;;;;823966;172;26404;-80
2024/04/08 12:20:00;;;;;;;12.43;6.93;;;25.40;88.60;;;;;;821325;174;26405;-81
2024/04/08 12:22:27;;;;;;;14.67;7.50;;;24.90;84.70;;;;;;826256;174;26429;-82
2024/04/08 12:24:53;;;;;;;14.97;8.20;;;25.20;90.70;;;;;;823710;174;26380;-81
2024/04/08 12:27:21;;;;;;;13.57;7.77;;;24.40;87.20;;;;;;820402;174;27042;-80